Da-Qaidam, China
Current Conditions -  °F | °C
As of 8:00 PM on Sunday 21 Dec 2014 (Local Time) from ZLLL Reporting Station
Smoke Smoke  
Wind Chill:   Ceiling: Unl
Heat Index: 12°   Visibility: 3mi
Dew Point:   Wind: 4mph
Humidity: 62%   Direction: 10°N
Pressure: 30.18"   Gusts: NA
Location:  37.85°N, 95.37°E
Report Text: ZLLL 211200Z 01002MPS 5000 FU NSC M11/M17 Q1022 NOSIG
Loading
Personal Weather Stations






























Interactive Weather Map New forecast layout! Learn more

10-Day Weather Forecast

Advertisements
Track Severe Weather on mobile